Time;durP1;ratioP1;P1;durP2;ratioP2;P2;SDS_P1;SDS_P2;PMS_P1;PMS_P2;Temp;Humidity;BMP_temperature;BMP_pressure;BME280_temperature;BME280_humidity;BME280_pressure;Samples;Min_cycle;Max_cycle;Signal;HPM_P1;HPM_P2
2023/10/01 00:00:15;;;;;;;;;28.33;24.00;;;;;15.37;100.00;102307.06;5020132;28;45467;-71
2023/10/01 00:02:41;;;;;;;;;23.00;22.00;;;;;15.38;100.00;102311.47;5019075;28;45427;-72
2023/10/01 00:05:07;;;;;;;;;24.00;21.67;;;;;15.33;100.00;102308.09;5020963;28;45410;-71
2023/10/01 00:07:37;;;;;;;;;24.00;22.33;;;;;15.29;100.00;102299.38;5020169;28;46200;-72
2023/10/01 00:10:09;;;;;;;;;25.00;21.33;;;;;15.25;100.00;102308.44;5020871;28;45372;-71
2023/10/01 00:12:35;;;;;;;;;21.33;19.00;;;;;15.27;100.00;102300.38;5018127;28;45317;-71
2023/10/01 00:15:00;;;;;;;;;25.00;22.33;;;;;15.26;100.00;102306.63;5018320;28;45345;-71
2023/10/01 00:17:25;;;;;;;;;18.67;16.67;;;;;15.27;100.00;102311.03;5020048;28;46092;-71
2023/10/01 00:19:51;;;;;;;;;26.33;19.00;;;;;15.27;100.00;102317.25;5019228;28;45377;-70
2023/10/01 00:22:17;;;;;;;;;19.67;18.67;;;;;15.25;100.00;102320.91;5019355;28;45567;-72
2023/10/01 00:24:43;;;;;;;;;22.00;19.33;;;;;15.24;100.00;102321.84;5019751;28;45387;-72
2023/10/01 00:27:09;;;;;;;;;19.00;15.33;;;;;15.18;100.00;102312.31;5018803;28;47218;-71
2023/10/01 00:29:34;;;;;;;;;19.67;18.00;;;;;15.12;100.00;102297.41;5018272;28;45498;-71
2023/10/01 00:31:59;;;;;;;;;22.00;20.67;;;;;15.15;100.00;102306.25;5020437;28;45665;-72
2023/10/01 00:34:25;;;;;;;;;20.00;16.67;;;;;15.19;100.00;102310.47;5020136;28;45479;-71
2023/10/01 00:36:52;;;;;;;;;20.00;17.33;;;;;15.17;100.00;102310.56;5016863;28;51571;-72
2023/10/01 00:39:18;;;;;;;;;15.00;13.33;;;;;15.06;100.00;102296.81;5021001;28;45309;-71
2023/10/01 00:41:44;;;;;;;;;22.67;19.67;;;;;15.08;100.00;102302.97;5019913;28;45408;-71
2023/10/01 00:44:09;;;;;;;;;14.67;14.00;;;;;15.08;100.00;102297.63;5015588;28;45387;-71
2023/10/01 00:46:34;;;;;;;;;23.67;22.00;;;;;15.09;100.00;102294.00;5019419;28;45400;-71
2023/10/01 00:49:01;;;;;;;;;24.33;22.00;;;;;15.07;100.00;102296.75;5020355;28;46443;-72
2023/10/01 00:51:31;;;;;;;;;27.67;23.33;;;;;15.05;100.00;102295.09;5017790;28;45289;-72
2023/10/01 00:53:57;;;;;;;;;21.33;20.67;;;;;15.10;100.00;102309.09;5020267;28;45501;-71
2023/10/01 00:56:22;;;;;;;;;30.33;25.00;;;;;15.03;100.00;102283.63;5019905;28;45357;-71
2023/10/01 00:58:48;;;;;;;;;19.00;17.33;;;;;15.06;100.00;102287.03;5015295;28;45392;-71
2023/10/01 01:01:16;;;;;;;;;24.00;20.00;;;;;15.07;100.00;102303.88;5016621;28;45306;-71
2023/10/01 01:03:45;;;;;;;;;20.33;18.67;;;;;15.06;100.00;102289.69;5019034;28;45313;-71
2023/10/01 01:06:17;;;;;;;;;26.33;22.67;;;;;15.04;100.00;102288.91;5016839;28;47523;-72
2023/10/01 01:08:54;;;;;;;;;14.00;14.00;;;;;15.04;100.00;102288.03;5018196;28;45321;-73
2023/10/01 01:11:21;;;;;;;;;23.67;22.00;;;;;15.02;100.00;102285.41;5007288;28;45345;-72
2023/10/01 01:13:47;;;;;;;;;28.33;22.33;;;;;15.02;100.00;102290.75;5013478;28;45676;-71
2023/10/01 01:16:14;;;;;;;;;27.33;19.67;;;;;14.94;100.00;102274.22;5018194;28;46243;-71
2023/10/01 01:18:42;;;;;;;;;29.00;24.00;;;;;14.91;100.00;102279.69;5019013;28;45476;-71
2023/10/01 01:21:13;;;;;;;;;25.67;23.00;;;;;14.97;100.00;102284.75;5017465;28;45237;-72
2023/10/01 01:23:41;;;;;;;;;25.00;22.00;;;;;14.96;100.00;102280.34;5017314;28;45578;-71
2023/10/01 01:26:07;;;;;;;;;28.00;24.67;;;;;14.94;100.00;102279.56;5018941;28;45530;-71
2023/10/01 01:28:34;;;;;;;;;23.00;20.67;;;;;14.93;100.00;102277.81;5019020;28;45601;-71
2023/10/01 01:31:01;;;;;;;;;24.33;21.33;;;;;14.86;100.00;102257.69;5019153;28;45527;-72
2023/10/01 01:33:31;;;;;;;;;24.67;21.67;;;;;14.88;100.00;102263.84;5021868;28;45569;-71
2023/10/01 01:36:06;;;;;;;;;28.33;23.00;;;;;14.83;100.00;102252.50;5019106;28;46043;-71
2023/10/01 01:38:32;;;;;;;;;33.00;28.00;;;;;14.88;100.00;102268.28;5018981;28;45335;-72
2023/10/01 01:40:57;;;;;;;;;23.00;22.00;;;;;14.77;100.00;102250.09;5021418;28;45426;-72
2023/10/01 01:43:23;;;;;;;;;28.67;25.33;;;;;14.84;100.00;102256.91;5020803;28;45667;-72
2023/10/01 01:45:55;;;;;;;;;26.00;24.33;;;;;14.73;100.00;102243.16;5019065;28;45360;-71
2023/10/01 01:48:30;;;;;;;;;27.00;22.00;;;;;14.79;100.00;102252.69;5017817;28;46316;-72
2023/10/01 01:51:00;;;;;;;;;26.00;21.67;;;;;14.82;100.00;102252.56;5014510;28;45278;-71
2023/10/01 01:53:26;;;;;;;;;23.67;23.67;;;;;14.80;100.00;102251.75;5031891;28;45560;-71
2023/10/01 01:55:56;;;;;;;;;21.33;20.33;;;;;14.72;100.00;102249.41;5019105;28;45368;-71
2023/10/01 01:58:24;;;;;;;;;25.67;22.67;;;;;14.73;100.00;102247.59;5018070;28;46039;-72
2023/10/01 02:03:37;;;;;;;;;22.67;20.00;;;;;14.73;100.00;102256.47;5010419;28;45419;-71
2023/10/01 02:06:06;;;;;;;;;33.33;24.33;;;;;14.72;100.00;102253.88;5017843;28;45458;-72
2023/10/01 02:08:35;;;;;;;;;24.00;23.00;;;;;14.68;100.00;102250.47;5017536;28;45436;-71
2023/10/01 02:11:04;;;;;;;;;22.00;20.67;;;;;14.69;100.00;102257.50;5014204;28;45355;-71
2023/10/01 02:13:32;;;;;;;;;25.33;23.00;;;;;14.68;100.00;102253.13;5017509;28;46292;-71
2023/10/01 02:16:18;;;;;;;;;20.00;19.00;;;;;14.69;100.00;102254.00;5018606;28;45298;-72
2023/10/01 02:18:43;;;;;;;;;24.33;20.00;;;;;14.60;100.00;102245.44;5013368;28;45423;-72
2023/10/01 02:21:16;;;;;;;;;23.67;20.67;;;;;14.60;100.00;102255.22;5019943;28;45503;-72
2023/10/01 02:23:41;;;;;;;;;29.00;21.00;;;;;14.62;100.00;102250.72;5018991;28;45234;-72
2023/10/01 02:26:07;;;;;;;;;23.33;20.00;;;;;14.62;100.00;102257.84;5018020;28;46246;-71
2023/10/01 02:28:33;;;;;;;;;25.00;19.67;;;;;14.61;100.00;102262.28;5017520;28;45555;-72
2023/10/01 02:31:00;;;;;;;;;20.67;20.67;;;;;14.60;100.00;102255.22;5019397;28;45619;-71
2023/10/01 02:33:55;;;;;;;;;24.33;21.00;;;;;14.58;100.00;102259.75;5017699;28;45511;-71
2023/10/01 02:36:13;;;;;;;;;27.33;19.33;;;;;14.55;100.00;102259.88;5017637;28;46488;-71
2023/10/01 02:38:45;;;;;;;;;27.67;24.33;;;;;14.56;100.00;102257.16;5016177;28;45289;-72
2023/10/01 02:41:15;;;;;;;;;22.67;19.67;;;;;14.54;100.00;102264.34;5018787;28;45266;-71
2023/10/01 02:43:41;;;;;;;;;25.67;21.67;;;;;14.53;100.00;102264.38;5018365;28;45463;-72
2023/10/01 02:46:15;;;;;;;;;25.67;23.00;;;;;14.51;100.00;102260.94;5017758;28;45401;-71
2023/10/01 02:48:42;;;;;;;;;25.00;18.00;;;;;14.50;100.00;102257.41;5018391;28;45285;-72
2023/10/01 02:51:14;;;;;;;;;21.67;20.00;;;;;14.49;100.00;102254.81;5011953;28;45368;-70
2023/10/01 02:53:42;;;;;;;;;21.33;20.33;;;;;14.40;100.00;102240.06;5016244;28;46581;-72
2023/10/01 02:56:16;;;;;;;;;29.67;19.00;;;;;14.45;100.00;102245.22;5018412;28;45284;-71
2023/10/01 02:58:49;;;;;;;;;21.00;20.00;;;;;14.43;100.00;102244.41;5016828;28;45435;-72
2023/10/01 03:01:15;;;;;;;;;29.33;23.00;;;;;14.44;100.00;102251.44;5018181;28;45577;-71
2023/10/01 03:03:40;;;;;;;;;26.67;22.67;;;;;14.35;100.00;102231.41;5018660;28;45277;-71
2023/10/01 03:06:11;;;;;;;;;26.33;19.67;;;;;14.42;100.00;102235.56;5017997;28;48117;-71
2023/10/01 03:08:59;;;;;;;;;22.67;17.67;;;;;14.42;100.00;102243.53;5013763;28;45445;-71
2023/10/01 03:11:25;;;;;;;;;20.67;16.33;;;;;14.33;100.00;102230.56;5016108;28;45504;-71
2023/10/01 03:13:54;;;;;;;;;19.00;18.67;;;;;14.40;100.00;102249.84;5018275;28;45492;-71
2023/10/01 03:16:44;;;;;;;;;25.67;22.00;;;;;14.26;100.00;102234.41;5017385;28;45606;-72
2023/10/01 03:19:25;;;;;;;;;25.67;20.67;;;;;14.34;100.00;102242.09;5013336;28;45511;-72
2023/10/01 03:24:31;;;;;;;;;18.00;17.33;;;;;14.35;100.00;102244.72;5022201;28;45250;-71
2023/10/01 03:29:42;;;;;;;;;23.67;17.33;;;;;14.21;100.00;102219.53;5017179;28;45258;-72
2023/10/01 03:34:53;;;;;;;;;16.67;16.67;;;;;14.29;100.00;102242.28;5016919;28;45195;-71
2023/10/01 03:37:19;;;;;;;;;19.33;18.33;;;;;14.23;100.00;102223.00;5016281;28;46094;-71
2023/10/01 03:39:50;;;;;;;;;20.33;18.00;;;;;14.26;100.00;102226.41;5017834;28;45352;-72
2023/10/01 03:42:17;;;;;;;;;22.00;17.67;;;;;14.28;100.00;102239.66;5017434;28;45502;-71
2023/10/01 03:44:59;;;;;;;;;21.00;19.67;;;;;14.27;100.00;102240.56;5017625;28;45438;-71
2023/10/01 03:47:26;;;;;;;;;23.33;20.00;;;;;14.27;100.00;102244.09;5017446;28;45516;-71
2023/10/01 03:49:56;;;;;;;;;18.00;18.00;;;;;14.19;100.00;102230.25;5017083;28;45448;-71
2023/10/01 03:52:22;;;;;;;;;22.00;19.67;;;;;14.16;100.00;102224.19;5014351;28;45543;-72
2023/10/01 03:55:02;;;;;;;;;26.67;19.33;;;;;14.23;100.00;102234.53;5015341;28;45523;-72
2023/10/01 03:57:29;;;;;;;;;20.00;17.33;;;;;14.15;100.00;102215.31;5017514;28;47060;-72
2023/10/01 03:59:57;;;;;;;;;23.67;19.67;;;;;14.23;100.00;102225.69;5015459;28;45337;-72
2023/10/01 04:02:27;;;;;;;;;21.00;19.00;;;;;14.08;100.00;102204.06;5017122;28;45618;-71
2023/10/01 04:04:58;;;;;;;;;19.33;17.00;;;;;14.21;100.00;102227.50;5017675;28;45281;-71
2023/10/01 04:07:42;;;;;;;;;16.33;16.33;;;;;14.17;100.00;102226.75;5016149;28;45205;-71
2023/10/01 04:10:14;;;;;;;;;16.33;16.33;;;;;14.18;100.00;102227.63;5012142;28;45568;-71
2023/10/01 04:12:50;;;;;;;;;20.33;16.00;;;;;14.15;100.00;102219.78;5010132;28;45489;-71
2023/10/01 04:15:31;;;;;;;;;21.33;18.67;;;;;14.15;100.00;102217.97;5014889;28;45616;-71
2023/10/01 04:23:29;;;;;;;;;26.67;18.00;;;;;14.13;100.00;102240.25;5015319;28;46178;-71
2023/10/01 04:26:06;;;;;;;;;21.33;18.00;;;;;14.08;100.00;102230.66;5021548;28;45535;-72
2023/10/01 04:28:36;;;;;;;;;15.67;13.33;;;;;14.10;100.00;102241.25;5018482;28;46993;-72
2023/10/01 04:31:09;;;;;;;;;27.67;18.00;;;;;14.06;100.00;102223.66;5018173;28;45591;-71
2023/10/01 04:33:42;;;;;;;;;18.33;16.00;;;;;14.02;100.00;102227.38;5019112;28;45337;-72
2023/10/01 04:36:16;;;;;;;;;18.00;14.33;;;;;14.04;100.00;102238.81;5018505;28;45352;-71
2023/10/01 04:38:43;;;;;;;;;20.67;16.67;;;;;14.02;100.00;102238.88;5021717;28;45630;-71
2023/10/01 04:41:22;;;;;;;;;21.00;19.67;;;;;14.04;100.00;102244.13;5022383;28;46160;-70
2023/10/01 04:44:00;;;;;;;;;22.33;18.33;;;;;14.01;100.00;102236.25;5018977;28;45250;-71
2023/10/01 04:46:25;;;;;;;;;18.33;16.00;;;;;13.99;100.00;102236.34;5023178;28;45493;-71
2023/10/01 04:48:52;;;;;;;;;16.33;15.33;;;;;13.97;100.00;102226.69;5019263;28;45533;-71
2023/10/01 04:51:21;;;;;;;;;21.33;17.00;;;;;13.98;100.00;102229.28;5020258;28;45476;-71
2023/10/01 04:53:47;;;;;;;;;19.33;19.33;;;;;13.97;100.00;102230.19;5018329;28;45400;-71
2023/10/01 04:56:20;;;;;;;;;19.33;16.67;;;;;13.98;100.00;102228.41;5019059;28;45576;-71
2023/10/01 04:58:51;;;;;;;;;14.67;12.67;;;;;13.96;100.00;102230.28;5015243;28;46763;-71
2023/10/01 05:01:18;;;;;;;;;18.67;16.67;;;;;13.96;100.00;102230.28;5018959;28;45349;-71
2023/10/01 05:03:44;;;;;;;;;17.00;16.00;;;;;13.89;100.00;102229.63;5019740;28;45315;-71
2023/10/01 05:06:19;;;;;;;;;22.00;18.33;;;;;13.92;100.00;102240.16;5020179;28;45302;-71
2023/10/01 05:08:47;;;;;;;;;17.33;17.33;;;;;13.92;100.00;102244.59;5018424;28;45609;-71
2023/10/01 05:11:16;;;;;;;;;18.33;16.00;;;;;13.89;100.00;102239.41;5018669;28;45650;-71
2023/10/01 05:13:44;;;;;;;;;19.33;17.00;;;;;13.82;100.00;102228.13;5016888;28;45529;-71
2023/10/01 05:16:14;;;;;;;;;12.67;9.67;;;;;13.89;100.00;102242.94;5019694;28;45316;-71
2023/10/01 05:18:43;;;;;;;;;12.00;10.67;;;;;13.89;100.00;102247.38;5017867;28;45425;-71
2023/10/01 05:21:13;;;;;;;;;18.33;17.67;;;;;13.88;100.00;102241.19;5015108;28;45534;-71
2023/10/01 05:23:39;;;;;;;;;12.67;11.00;;;;;13.87;100.00;102244.78;5023594;28;45518;-71
2023/10/01 05:26:08;;;;;;;;;20.00;17.67;;;;;13.87;100.00;102247.44;5020303;28;45405;-71
2023/10/01 05:28:36;;;;;;;;;17.00;14.67;;;;;13.84;100.00;102250.22;5018873;28;45474;-71
2023/10/01 05:31:06;;;;;;;;;20.67;15.33;;;;;13.82;100.00;102246.75;5018876;28;45321;-71
2023/10/01 05:33:34;;;;;;;;;18.67;17.67;;;;;13.82;100.00;102244.09;5018939;28;45379;-71
2023/10/01 05:36:06;;;;;;;;;18.33;16.67;;;;;13.82;100.00;102245.88;5016447;28;45526;-71
2023/10/01 05:38:36;;;;;;;;;16.67;14.00;;;;;13.81;100.00;102250.31;5017178;28;45365;-71
2023/10/01 05:41:05;;;;;;;;;14.33;14.33;;;;;13.68;100.00;102233.09;5018917;28;45235;-71
2023/10/01 05:44:10;;;;;;;;;16.00;16.00;;;;;13.79;100.00;102248.66;5012810;28;45398;-72
2023/10/01 05:46:27;;;;;;;;;18.67;16.67;;;;;13.74;100.00;102247.97;5018326;28;45354;-71
2023/10/01 05:48:55;;;;;;;;;14.33;12.00;;;;;13.78;100.00;102253.09;5018213;28;46101;-71
2023/10/01 05:51:30;;;;;;;;;19.00;16.00;;;;;13.74;100.00;102248.84;5017378;28;45499;-72
2023/10/01 05:53:59;;;;;;;;;20.33;15.00;;;;;13.77;100.00;102253.19;5018210;28;45340;-71
2023/10/01 05:56:36;;;;;;;;;18.33;14.00;;;;;13.71;100.00;102258.72;5013915;28;45331;-71
2023/10/01 05:59:03;;;;;;;;;17.67;15.33;;;;;13.66;100.00;102242.06;5019581;28;45619;-71
2023/10/01 06:01:29;;;;;;;;;17.67;15.67;;;;;13.77;100.00;102256.72;5018385;28;45222;-71
2023/10/01 06:03:56;;;;;;;;;20.67;17.00;;;;;13.74;100.00;102256.81;5019222;28;45311;-71
2023/10/01 06:06:24;;;;;;;;;11.00;10.00;;;;;13.73;100.00;102252.41;5013856;28;45562;-71
2023/10/01 06:08:58;;;;;;;;;18.33;18.33;;;;;13.71;100.00;102262.22;5017371;28;46285;-72
2023/10/01 06:11:38;;;;;;;;;14.00;14.00;;;;;13.77;100.00;102259.38;5015613;28;45353;-71
2023/10/01 06:14:08;;;;;;;;;19.67;15.67;;;;;13.79;100.00;102261.94;5019233;28;45423;-71
2023/10/01 06:16:37;;;;;;;;;13.33;12.33;;;;;13.82;100.00;102262.69;5020363;28;45216;-71
2023/10/01 06:19:04;;;;;;;;;15.33;15.33;;;;;13.83;100.00;102274.22;5014900;28;46162;-71
2023/10/01 06:21:31;;;;;;;;;19.00;17.00;;;;;13.84;100.00;102267.97;5033381;28;45372;-72
2023/10/01 06:24:06;;;;;;;;;19.67;14.67;;;;;13.86;100.00;102271.44;5018634;28;45297;-71
2023/10/01 06:26:50;;;;;;;;;18.00;15.33;;;;;13.86;100.00;102264.34;5006384;28;45286;-71
2023/10/01 06:29:16;;;;;;;;;22.33;15.00;;;;;13.86;100.00;102268.78;5016024;28;46039;-71
2023/10/01 06:31:48;;;;;;;;;15.67;13.00;;;;;13.92;100.00;102263.22;5017168;28;45256;-71
2023/10/01 06:34:24;;;;;;;;;19.00;16.00;;;;;13.96;100.00;102263.06;5018543;28;45443;-71
2023/10/01 06:36:58;;;;;;;;;17.67;16.00;;;;;13.99;100.00;102270.06;5007619;28;45507;-72
2023/10/01 06:39:32;;;;;;;;;17.33;16.00;;;;;13.91;100.00;102237.53;5015410;28;47359;-71
2023/10/01 06:42:18;;;;;;;;;20.67;18.00;;;;;14.05;100.00;102257.38;5018012;28;45460;-71
2023/10/01 06:44:44;;;;;;;;;18.67;17.00;;;;;14.03;100.00;102253.94;5015598;28;45587;-71
2023/10/01 06:47:16;;;;;;;;;19.00;19.00;;;;;14.07;100.00;102250.19;5016460;28;45313;-71
2023/10/01 06:50:06;;;;;;;;;23.67;12.67;;;;;14.17;100.00;102250.72;5016496;28;46233;-71
2023/10/01 06:52:41;;;;;;;;;19.67;17.33;;;;;14.14;100.00;102234.88;5017377;28;45428;-71
2023/10/01 06:55:08;;;;;;;;;23.00;19.67;;;;;14.28;100.00;102245.84;5018299;28;45427;-71
2023/10/01 06:57:33;;;;;;;;;19.67;18.67;;;;;14.31;100.00;102251.03;5019328;28;45670;-71
2023/10/01 07:00:21;;;;;;;;;19.33;18.33;;;;;14.37;100.00;102255.28;5017966;28;45583;-72
2023/10/01 07:02:47;;;;;;;;;25.00;18.67;;;;;14.44;100.00;102251.44;5015470;28;45647;-71
2023/10/01 07:05:20;;;;;;;;;29.33;22.00;;;;;14.41;100.00;102246.25;5016611;28;45353;-72
2023/10/01 07:07:45;;;;;;;;;22.33;19.67;;;;;14.50;100.00;102251.19;5016903;28;45362;-71
2023/10/01 07:10:11;;;;;;;;;23.33;21.00;;;;;14.50;100.00;102240.56;5016500;28;45512;-72
2023/10/01 07:12:38;;;;;;;;;22.00;19.33;;;;;14.58;100.00;102251.78;5019583;28;45536;-71
2023/10/01 07:15:04;;;;;;;;;22.67;19.00;;;;;14.71;100.00;102252.13;5018884;28;45492;-70
2023/10/01 07:17:31;;;;;;;;;27.33;22.00;;;;;14.78;100.00;102250.97;5023952;28;45368;-71
2023/10/01 07:19:59;;;;;;;;;28.33;25.67;;;;;14.83;100.00;102259.59;5021514;28;46174;-71
2023/10/01 07:22:34;;;;;;;;;27.00;25.00;;;;;14.91;100.00;102252.19;5017388;28;45357;-72
2023/10/01 07:25:03;;;;;;;;;28.00;20.67;;;;;14.87;100.00;102232.78;5017206;28;45385;-71
2023/10/01 07:27:29;;;;;;;;;23.67;22.67;;;;;15.01;100.00;102230.41;5018552;28;45301;-71
2023/10/01 07:29:55;;;;;;;;;22.00;18.67;;;;;15.12;100.00;102257.44;5017473;28;45392;-71
2023/10/01 07:32:22;;;;;;;;;26.33;20.67;;;;;15.18;100.00;102251.00;5019097;28;45556;-71
2023/10/01 07:34:55;;;;;;;;;32.00;26.33;;;;;15.19;100.00;102247.41;5018172;28;45250;-71
2023/10/01 07:37:31;;;;;;;;;26.67;23.67;;;;;15.33;100.00;102261.00;5003771;28;45401;-71
2023/10/01 07:40:08;;;;;;;;;26.00;19.00;;;;;15.43;100.00;102261.47;5017439;28;45475;-72
2023/10/01 07:42:46;;;;;;;;;26.00;23.00;;;;;15.52;100.00;102258.41;5018492;28;45293;-71
2023/10/01 07:45:16;;;;;;;;;25.33;23.33;;;;;15.63;100.00;102266.81;5017849;28;45327;-72
2023/10/01 07:47:42;;;;;;;;;26.67;22.00;;;;;15.72;100.00;102262.84;5019161;28;45378;-71
2023/10/01 07:50:12;;;;;;;;;24.00;22.33;;;;;15.82;100.00;102259.69;5017887;28;46028;-71
2023/10/01 07:52:40;;;;;;;;;23.67;20.33;;;;;15.90;100.00;102265.53;5017835;28;45293;-71
2023/10/01 07:58:16;;;;;;;;;23.33;21.33;;;;;16.12;100.00;102274.31;5018060;28;45361;-71
2023/10/01 08:00:41;;;;;;;;;24.67;22.00;;;;;16.23;100.00;102272.94;5019027;28;45265;-71
2023/10/01 08:05:47;;;;;;;;;24.33;20.33;;;;;16.35;100.00;102256.31;5008881;28;45352;-71
2023/10/01 08:08:13;;;;;;;;;22.00;19.00;;;;;16.53;100.00;102266.09;5021960;28;45223;-71
2023/10/01 08:10:40;;;;;;;;;25.33;17.33;;;;;16.58;100.00;102258.78;5020990;28;45603;-72
2023/10/01 08:13:07;;;;;;;;;20.00;17.67;;;;;16.66;100.00;102256.59;5020599;28;45396;-71
2023/10/01 08:15:38;;;;;;;;;23.00;20.00;;;;;16.82;100.00;102270.06;5021491;28;45373;-71
2023/10/01 08:18:26;;;;;;;;;20.67;18.00;;;;;16.93;100.00;102279.28;5021121;28;45448;-71
2023/10/01 08:20:58;;;;;;;;;16.00;13.00;;;;;17.05;100.00;102285.78;5019145;28;47026;-71
2023/10/01 08:23:25;;;;;;;;;18.33;11.33;;;;;17.18;100.00;102279.75;5020948;28;45359;-71
2023/10/01 08:25:55;;;;;;;;;15.67;15.00;;;;;17.30;100.00;102285.44;5021653;28;45368;-71
2023/10/01 08:30:49;;;;;;;;;17.67;14.33;;;;;17.49;100.00;102272.81;5019712;28;45415;-71
2023/10/01 08:33:24;;;;;;;;;16.33;14.67;;;;;17.60;100.00;102271.31;5017792;28;45743;-71
2023/10/01 08:36:12;;;;;;;;;18.33;15.00;;;;;17.82;100.00;102289.78;5021499;28;45396;-71
2023/10/01 08:38:38;;;;;;;;;12.33;12.33;;;;;17.94;100.00;102282.91;5021434;28;45375;-71
2023/10/01 08:41:05;;;;;;;;;19.33;14.00;;;;;18.13;100.00;102286.31;5019787;28;48245;-71
2023/10/01 08:43:35;;;;;;;;;16.00;14.00;;;;;18.30;100.00;102285.38;5018358;28;45204;-71
2023/10/01 08:46:15;;;;;;;;;12.67;12.33;;;;;18.44;100.00;102274.75;5018213;28;45400;-71
2023/10/01 08:48:43;;;;;;;;;13.33;10.67;;;;;18.61;100.00;102277.38;5021588;28;45333;-71
2023/10/01 08:51:11;;;;;;;;;13.00;11.33;;;;;18.75;100.00;102280.09;5020107;28;45364;-71
2023/10/01 08:53:41;;;;;;;;;7.33;7.33;;;;;18.88;100.00;102278.44;5019660;28;45390;-71
2023/10/01 08:56:32;;;;;;;;;16.33;11.00;;;;;19.03;100.00;102274.00;5009599;28;45345;-72
2023/10/01 08:58:59;;;;;;;;;12.33;10.33;;;;;19.18;100.00;102273.09;5019944;28;45809;-72
2023/10/01 09:01:27;;;;;;;;;8.67;8.67;;;;;19.30;100.00;102266.16;5021708;28;47779;-72
2023/10/01 09:03:55;;;;;;;;;11.00;9.33;;;;;19.42;100.00;102276.16;5020475;28;45276;-71
2023/10/01 09:06:24;;;;;;;;;11.00;7.00;;;;;19.51;100.00;102270.22;5020763;28;45306;-71
2023/10/01 09:08:54;;;;;;;;;12.67;8.00;;;;;19.62;100.00;102271.31;5018894;28;45410;-71
2023/10/01 09:11:36;;;;;;;;;10.00;8.00;;;;;19.74;100.00;102259.81;5019813;28;45221;-72
2023/10/01 09:14:17;;;;;;;;;12.33;11.00;;;;;19.93;100.00;102267.56;5021056;28;45237;-72
2023/10/01 09:16:47;;;;;;;;;11.00;10.67;;;;;19.96;100.00;102255.78;5021250;28;45527;-71
2023/10/01 09:22:15;;;;;;;;;11.00;9.33;;;;;20.21;100.00;102269.38;5020804;28;45371;-72
2023/10/01 09:24:42;;;;;;;;;9.00;7.00;;;;;20.32;99.83;102269.56;5021589;28;45643;-71
2023/10/01 09:27:30;;;;;;;;;11.33;8.00;;;;;20.48;95.57;102262.25;5021655;28;45448;-72
2023/10/01 09:30:31;;;;;;;;;6.00;6.00;;;;;20.51;93.81;102245.06;5021987;28;45567;-72
2023/10/01 09:33:04;;;;;;;;;9.67;7.00;;;;;20.74;98.94;102260.53;5020015;28;46990;-72
2023/10/01 09:35:41;;;;;;;;;6.67;6.67;;;;;20.79;92.79;102258.38;5020224;28;45329;-71
2023/10/01 09:38:12;;;;;;;;;10.67;8.00;;;;;20.90;94.88;102260.34;5018587;28;45302;-71
2023/10/01 09:40:42;;;;;;;;;9.00;8.33;;;;;20.91;92.86;102249.47;5018072;28;45361;-72
2023/10/01 09:43:18;;;;;;;;;7.00;7.00;;;;;21.05;93.97;102259.31;5020832;28;45995;-71
2023/10/01 09:45:46;;;;;;;;;7.00;7.00;;;;;21.10;93.08;102251.84;5019319;28;45273;-71
2023/10/01 09:48:29;;;;;;;;;14.00;9.33;;;;;21.14;91.85;102258.72;5018678;28;45484;-72
2023/10/01 09:50:56;;;;;;;;;10.67;8.00;;;;;21.18;88.25;102257.53;5019944;28;45291;-72
2023/10/01 09:53:26;;;;;;;;;9.67;7.00;;;;;21.26;94.01;102257.88;5019408;28;46373;-71
2023/10/01 09:55:56;;;;;;;;;8.00;8.00;;;;;21.29;91.34;102250.47;5020784;28;45289;-72
2023/10/01 09:58:29;;;;;;;;;8.33;7.00;;;;;21.38;95.11;102242.72;5019851;28;45369;-71
2023/10/01 10:01:01;;;;;;;;;7.33;7.00;;;;;21.42;90.85;102244.22;5017416;28;45501;-71
2023/10/01 10:03:37;;;;;;;;;9.33;9.00;;;;;21.38;93.24;102238.19;5019470;28;45530;-72
2023/10/01 10:06:08;;;;;;;;;9.67;7.33;;;;;21.39;92.27;102233.69;5019120;28;45502;-71
2023/10/01 10:08:35;;;;;;;;;11.33;9.00;;;;;21.47;93.12;102234.84;5034543;28;45333;-71
2023/10/01 10:11:05;;;;;;;;;6.33;6.33;;;;;21.50;91.11;102226.56;5019203;28;45271;-71
2023/10/01 10:13:46;;;;;;;;;8.00;7.00;;;;;21.64;94.55;102239.91;5019573;28;46258;-71
2023/10/01 10:19:13;;;;;;;;;6.00;5.00;;;;;21.78;90.61;102234.41;5020709;28;45380;-72
2023/10/01 10:24:46;;;;;;;;;15.67;13.00;;;;;21.85;92.69;102217.81;5016212;28;45400;-72
2023/10/01 10:27:24;;;;;;;;;9.00;9.00;;;;;21.94;91.55;102217.19;5006358;28;45301;-72
2023/10/01 10:29:56;;;;;;;;;10.67;8.00;;;;;22.05;93.00;102228.06;5018025;28;45788;-72
2023/10/01 10:32:30;;;;;;;;;7.67;6.00;;;;;21.98;91.54;102208.78;5017386;28;45253;-72
2023/10/01 10:35:05;;;;;;;;;7.00;7.00;;;;;22.07;89.40;102220.69;5019283;28;45416;-72
2023/10/01 10:37:36;;;;;;;;;10.00;8.00;;;;;22.09;86.93;102216.06;5018792;28;45235;-72
2023/10/01 10:40:12;;;;;;;;;9.00;8.67;;;;;22.15;87.80;102210.25;5018703;28;45375;-72
2023/10/01 10:42:38;;;;;;;;;7.67;6.00;;;;;22.17;88.06;102209.16;5016002;28;45376;-72
2023/10/01 10:45:23;;;;;;;;;8.33;6.33;;;;;22.26;85.57;102207.59;5018967;28;45475;-72
2023/10/01 10:48:03;;;;;;;;;12.33;7.00;;;;;22.34;88.13;102207.91;5019057;28;45405;-71
2023/10/01 10:50:45;;;;;;;;;5.67;4.33;;;;;22.39;85.45;102207.53;5004201;28;45540;-72
2023/10/01 10:53:15;;;;;;;;;10.00;8.00;;;;;22.46;85.17;102208.81;5016603;28;45795;-71
2023/10/01 10:55:50;;;;;;;;;11.00;8.33;;;;;22.53;87.91;102207.38;5020068;28;45717;-72
2023/10/01 10:58:15;;;;;;;;;8.33;7.00;;;;;22.57;86.09;102200.78;5018960;28;45329;-71
2023/10/01 11:00:41;;;;;;;;;10.67;8.67;;;;;22.64;83.14;102199.34;5024947;28;45347;-72
2023/10/01 11:03:10;;;;;;;;;8.00;7.67;;;;;22.72;86.99;102205.06;5019977;28;45341;-71
2023/10/01 11:05:49;;;;;;;;;5.00;5.00;;;;;22.79;82.40;102199.09;5020066;28;45509;-72
2023/10/01 11:08:25;;;;;;;;;5.00;5.00;;;;;22.89;80.88;102203.78;5019429;28;45483;-72
2023/10/01 11:10:54;;;;;;;;;6.00;6.00;;;;;23.01;80.75;102194.72;5019573;28;45439;-72
2023/10/01 11:13:35;;;;;;;;;6.33;4.33;;;;;23.07;78.08;102195.09;5018037;28;45302;-71
2023/10/01 11:16:13;;;;;;;;;7.33;5.33;;;;;23.04;79.48;102183.69;5018669;28;46182;-71
2023/10/01 11:18:48;;;;;;;;;7.67;5.33;;;;;23.15;80.22;102203.47;5018023;28;45395;-72
2023/10/01 11:21:31;;;;;;;;;6.00;5.67;;;;;23.18;79.18;102184.34;5018898;28;45457;-71
2023/10/01 11:24:00;;;;;;;;;7.33;5.00;;;;;23.23;80.72;102184.81;5022696;28;45325;-72
2023/10/01 11:26:26;;;;;;;;;13.67;8.67;;;;;23.29;79.83;102184.38;5017729;28;45721;-72
2023/10/01 11:28:52;;;;;;;;;7.00;6.67;;;;;23.26;78.43;102181.91;5019839;28;45377;-72
2023/10/01 11:31:24;;;;;;;;;6.33;6.33;;;;;23.34;78.54;102176.75;5019086;28;45349;-71
2023/10/01 11:34:03;;;;;;;;;8.33;8.33;;;;;23.39;80.00;102167.44;5016974;28;45436;-72
2023/10/01 11:36:35;;;;;;;;;12.33;8.33;;;;;23.46;77.33;102171.41;5021135;28;45235;-72
2023/10/01 11:39:03;;;;;;;;;8.00;6.67;;;;;23.53;77.07;102172.63;5022660;28;45236;-72
2023/10/01 11:41:38;;;;;;;;;8.33;7.33;;;;;23.56;74.90;102167.00;5022975;28;45293;-72
2023/10/01 11:44:05;;;;;;;;;7.67;7.00;;;;;23.65;72.26;102169.81;5021861;28;45452;-71
2023/10/01 11:46:34;;;;;;;;;6.33;6.33;;;;;23.72;73.44;102170.19;5021188;28;46372;-71
2023/10/01 11:49:06;;;;;;;;;6.33;6.33;;;;;23.78;75.18;102166.97;5009107;28;45436;-72
2023/10/01 11:51:45;;;;;;;;;9.00;8.00;;;;;23.73;73.74;102148.44;5023254;28;45298;-72
2023/10/01 11:54:22;;;;;;;;;6.33;5.67;;;;;23.89;75.68;102164.25;5010709;28;45235;-72
2023/10/01 11:57:08;;;;;;;;;8.67;6.00;;;;;23.93;72.77;102157.63;5020920;28;46201;-72